sensor_id;sensor_type;location;lat;lon;timestamp;P1;durP1;ratioP1;P2;durP2;ratioP2
16354;SDS011;8287;51.644;8.494;2023-04-06T00:00:10;8.88;;;5.43;;
16354;SDS011;8287;51.644;8.494;2023-04-06T00:02:37;8.45;;;5.07;;
16354;SDS011;8287;51.644;8.494;2023-04-06T00:05:05;6.53;;;5.22;;
16354;SDS011;8287;51.644;8.494;2023-04-06T00:07:32;8.82;;;5.20;;
16354;SDS011;8287;51.644;8.494;2023-04-06T00:09:59;7.80;;;4.82;;
16354;SDS011;8287;51.644;8.494;2023-04-06T00:12:26;10.38;;;5.40;;
16354;SDS011;8287;51.644;8.494;2023-04-06T00:14:54;7.88;;;5.18;;
16354;SDS011;8287;51.644;8.494;2023-04-06T00:17:20;8.68;;;5.82;;
16354;SDS011;8287;51.644;8.494;2023-04-06T00:19:47;8.73;;;5.40;;
16354;SDS011;8287;51.644;8.494;2023-04-06T00:22:14;7.13;;;5.35;;
16354;SDS011;8287;51.644;8.494;2023-04-06T00:24:40;7.95;;;4.82;;
16354;SDS011;8287;51.644;8.494;2023-04-06T00:27:07;8.68;;;4.93;;
16354;SDS011;8287;51.644;8.494;2023-04-06T00:29:34;8.02;;;5.28;;
16354;SDS011;8287;51.644;8.494;2023-04-06T00:32:02;8.90;;;5.50;;
16354;SDS011;8287;51.644;8.494;2023-04-06T00:34:29;11.05;;;5.97;;
16354;SDS011;8287;51.644;8.494;2023-04-06T00:36:55;6.15;;;4.72;;
16354;SDS011;8287;51.644;8.494;2023-04-06T00:39:22;6.97;;;5.30;;
16354;SDS011;8287;51.644;8.494;2023-04-06T00:41:49;8.30;;;5.93;;
16354;SDS011;8287;51.644;8.494;2023-04-06T00:44:18;9.07;;;5.07;;
16354;SDS011;8287;51.644;8.494;2023-04-06T00:46:45;9.07;;;4.93;;
16354;SDS011;8287;51.644;8.494;2023-04-06T00:49:13;8.82;;;5.47;;
16354;SDS011;8287;51.644;8.494;2023-04-06T00:51:40;6.63;;;5.15;;
16354;SDS011;8287;51.644;8.494;2023-04-06T00:54:07;8.35;;;4.50;;
16354;SDS011;8287;51.644;8.494;2023-04-06T00:56:34;8.73;;;4.68;;
16354;SDS011;8287;51.644;8.494;2023-04-06T00:59:01;5.93;;;4.68;;
16354;SDS011;8287;51.644;8.494;2023-04-06T01:01:28;5.25;;;4.40;;
16354;SDS011;8287;51.644;8.494;2023-04-06T01:03:57;6.00;;;4.20;;
16354;SDS011;8287;51.644;8.494;2023-04-06T01:06:25;4.53;;;3.78;;
16354;SDS011;8287;51.644;8.494;2023-04-06T01:08:52;6.78;;;5.18;;
16354;SDS011;8287;51.644;8.494;2023-04-06T01:11:19;4.95;;;4.07;;
16354;SDS011;8287;51.644;8.494;2023-04-06T01:13:45;5.43;;;4.32;;
16354;SDS011;8287;51.644;8.494;2023-04-06T01:16:12;5.32;;;4.25;;
16354;SDS011;8287;51.644;8.494;2023-04-06T01:18:39;6.55;;;4.68;;
16354;SDS011;8287;51.644;8.494;2023-04-06T01:21:07;6.13;;;3.97;;
16354;SDS011;8287;51.644;8.494;2023-04-06T01:23:36;5.55;;;3.55;;
16354;SDS011;8287;51.644;8.494;2023-04-06T01:26:03;8.23;;;3.67;;
16354;SDS011;8287;51.644;8.494;2023-04-06T01:28:30;5.03;;;4.00;;
16354;SDS011;8287;51.644;8.494;2023-04-06T01:30:56;3.80;;;3.45;;
16354;SDS011;8287;51.644;8.494;2023-04-06T01:33:23;5.10;;;4.07;;
16354;SDS011;8287;51.644;8.494;2023-04-06T01:35:50;5.22;;;3.95;;
16354;SDS011;8287;51.644;8.494;2023-04-06T01:38:16;5.75;;;4.10;;
16354;SDS011;8287;51.644;8.494;2023-04-06T01:40:44;5.35;;;4.07;;
16354;SDS011;8287;51.644;8.494;2023-04-06T01:43:11;5.57;;;4.07;;
16354;SDS011;8287;51.644;8.494;2023-04-06T01:45:38;5.32;;;4.28;;
16354;SDS011;8287;51.644;8.494;2023-04-06T01:48:05;5.72;;;3.70;;
16354;SDS011;8287;51.644;8.494;2023-04-06T01:50:33;4.25;;;3.30;;
16354;SDS011;8287;51.644;8.494;2023-04-06T01:52:59;5.80;;;4.03;;
16354;SDS011;8287;51.644;8.494;2023-04-06T01:55:26;5.30;;;4.30;;
16354;SDS011;8287;51.644;8.494;2023-04-06T01:57:54;7.22;;;5.18;;
16354;SDS011;8287;51.644;8.494;2023-04-06T02:00:21;8.35;;;5.60;;
16354;SDS011;8287;51.644;8.494;2023-04-06T02:02:48;6.93;;;4.82;;
16354;SDS011;8287;51.644;8.494;2023-04-06T02:05:15;5.63;;;4.57;;
16354;SDS011;8287;51.644;8.494;2023-04-06T02:07:41;5.75;;;4.90;;
16354;SDS011;8287;51.644;8.494;2023-04-06T02:10:11;5.90;;;4.10;;
16354;SDS011;8287;51.644;8.494;2023-04-06T02:12:38;6.38;;;4.50;;
16354;SDS011;8287;51.644;8.494;2023-04-06T02:15:06;6.85;;;4.85;;
16354;SDS011;8287;51.644;8.494;2023-04-06T02:17:34;6.35;;;4.60;;
16354;SDS011;8287;51.644;8.494;2023-04-06T02:20:01;6.38;;;4.53;;
16354;SDS011;8287;51.644;8.494;2023-04-06T02:22:27;6.40;;;4.60;;
16354;SDS011;8287;51.644;8.494;2023-04-06T02:24:54;6.57;;;4.97;;
16354;SDS011;8287;51.644;8.494;2023-04-06T02:27:20;6.97;;;5.72;;
16354;SDS011;8287;51.644;8.494;2023-04-06T02:29:47;6.45;;;4.85;;
16354;SDS011;8287;51.644;8.494;2023-04-06T02:32:15;6.43;;;5.07;;
16354;SDS011;8287;51.644;8.494;2023-04-06T02:34:42;6.45;;;4.90;;
16354;SDS011;8287;51.644;8.494;2023-04-06T02:37:09;8.70;;;4.90;;
16354;SDS011;8287;51.644;8.494;2023-04-06T02:39:35;5.88;;;4.90;;
16354;SDS011;8287;51.644;8.494;2023-04-06T02:42:02;7.20;;;5.30;;
16354;SDS011;8287;51.644;8.494;2023-04-06T02:44:29;7.53;;;4.60;;
16354;SDS011;8287;51.644;8.494;2023-04-06T02:46:56;7.32;;;5.10;;
16354;SDS011;8287;51.644;8.494;2023-04-06T02:49:24;5.50;;;4.28;;
16354;SDS011;8287;51.644;8.494;2023-04-06T02:51:50;5.70;;;4.55;;
16354;SDS011;8287;51.644;8.494;2023-04-06T02:54:17;5.15;;;4.03;;
16354;SDS011;8287;51.644;8.494;2023-04-06T02:56:44;8.10;;;5.30;;
16354;SDS011;8287;51.644;8.494;2023-04-06T02:59:10;6.65;;;4.95;;
16354;SDS011;8287;51.644;8.494;2023-04-06T03:01:37;7.18;;;5.10;;
16354;SDS011;8287;51.644;8.494;2023-04-06T03:04:04;5.63;;;4.53;;
16354;SDS011;8287;51.644;8.494;2023-04-06T03:06:32;4.95;;;4.32;;
16354;SDS011;8287;51.644;8.494;2023-04-06T03:08:58;7.63;;;5.13;;
16354;SDS011;8287;51.644;8.494;2023-04-06T03:11:25;6.00;;;5.15;;
16354;SDS011;8287;51.644;8.494;2023-04-06T03:13:52;6.88;;;4.72;;
16354;SDS011;8287;51.644;8.494;2023-04-06T03:16:19;7.60;;;4.88;;
16354;SDS011;8287;51.644;8.494;2023-04-06T03:18:45;6.10;;;4.75;;
16354;SDS011;8287;51.644;8.494;2023-04-06T03:21:12;6.28;;;5.03;;
16354;SDS011;8287;51.644;8.494;2023-04-06T03:23:41;7.78;;;5.57;;
16354;SDS011;8287;51.644;8.494;2023-04-06T03:26:08;9.13;;;4.60;;
16354;SDS011;8287;51.644;8.494;2023-04-06T03:28:34;6.00;;;5.07;;
16354;SDS011;8287;51.644;8.494;2023-04-06T03:31:01;6.93;;;5.70;;
16354;SDS011;8287;51.644;8.494;2023-04-06T03:33:28;11.40;;;5.80;;
16354;SDS011;8287;51.644;8.494;2023-04-06T03:35:54;7.18;;;5.65;;
16354;SDS011;8287;51.644;8.494;2023-04-06T03:38:21;7.35;;;5.40;;
16354;SDS011;8287;51.644;8.494;2023-04-06T03:40:49;6.80;;;4.95;;
16354;SDS011;8287;51.644;8.494;2023-04-06T03:43:16;7.10;;;5.07;;
16354;SDS011;8287;51.644;8.494;2023-04-06T03:45:42;6.60;;;5.18;;
16354;SDS011;8287;51.644;8.494;2023-04-06T03:48:09;6.70;;;4.72;;
16354;SDS011;8287;51.644;8.494;2023-04-06T03:50:36;8.90;;;6.28;;
16354;SDS011;8287;51.644;8.494;2023-04-06T03:53:02;8.82;;;5.72;;
16354;SDS011;8287;51.644;8.494;2023-04-06T03:55:29;10.63;;;6.07;;
16354;SDS011;8287;51.644;8.494;2023-04-06T03:57:57;8.73;;;6.05;;
16354;SDS011;8287;51.644;8.494;2023-04-06T04:00:24;9.27;;;6.00;;
16354;SDS011;8287;51.644;8.494;2023-04-06T04:02:50;8.38;;;5.68;;
16354;SDS011;8287;51.644;8.494;2023-04-06T04:05:17;8.23;;;5.68;;
16354;SDS011;8287;51.644;8.494;2023-04-06T04:07:44;10.90;;;5.95;;
16354;SDS011;8287;51.644;8.494;2023-04-06T04:10:10;9.63;;;6.00;;
16354;SDS011;8287;51.644;8.494;2023-04-06T04:12:37;8.23;;;5.82;;
16354;SDS011;8287;51.644;8.494;2023-04-06T04:15:05;8.07;;;5.95;;
16354;SDS011;8287;51.644;8.494;2023-04-06T04:17:33;7.35;;;5.40;;
16354;SDS011;8287;51.644;8.494;2023-04-06T04:19:59;9.02;;;6.07;;
16354;SDS011;8287;51.644;8.494;2023-04-06T04:22:26;8.65;;;6.07;;
16354;SDS011;8287;51.644;8.494;2023-04-06T04:24:53;8.35;;;6.05;;
16354;SDS011;8287;51.644;8.494;2023-04-06T04:27:20;7.38;;;5.45;;
16354;SDS011;8287;51.644;8.494;2023-04-06T04:29:47;7.75;;;5.40;;
16354;SDS011;8287;51.644;8.494;2023-04-06T04:32:15;9.18;;;5.35;;
16354;SDS011;8287;51.644;8.494;2023-04-06T04:34:41;8.27;;;5.95;;
16354;SDS011;8287;51.644;8.494;2023-04-06T04:37:08;9.15;;;6.25;;
16354;SDS011;8287;51.644;8.494;2023-04-06T04:39:35;8.57;;;6.25;;
16354;SDS011;8287;51.644;8.494;2023-04-06T04:42:01;8.32;;;5.82;;
16354;SDS011;8287;51.644;8.494;2023-04-06T04:44:28;7.72;;;5.65;;
16354;SDS011;8287;51.644;8.494;2023-04-06T04:46:55;9.23;;;5.70;;
16354;SDS011;8287;51.644;8.494;2023-04-06T04:49:23;7.22;;;5.38;;
16354;SDS011;8287;51.644;8.494;2023-04-06T04:51:50;11.18;;;6.45;;
16354;SDS011;8287;51.644;8.494;2023-04-06T04:54:17;8.73;;;6.00;;
16354;SDS011;8287;51.644;8.494;2023-04-06T04:56:44;9.88;;;5.82;;
16354;SDS011;8287;51.644;8.494;2023-04-06T04:59:11;7.78;;;4.72;;
16354;SDS011;8287;51.644;8.494;2023-04-06T05:01:37;9.48;;;6.38;;
16354;SDS011;8287;51.644;8.494;2023-04-06T05:04:04;9.80;;;5.97;;
16354;SDS011;8287;51.644;8.494;2023-04-06T05:06:32;8.15;;;5.40;;
16354;SDS011;8287;51.644;8.494;2023-04-06T05:08:59;11.52;;;5.88;;
16354;SDS011;8287;51.644;8.494;2023-04-06T05:11:25;8.23;;;4.95;;
16354;SDS011;8287;51.644;8.494;2023-04-06T05:13:53;9.15;;;5.28;;
16354;SDS011;8287;51.644;8.494;2023-04-06T05:16:20;6.35;;;4.95;;
16354;SDS011;8287;51.644;8.494;2023-04-06T05:18:47;7.50;;;5.00;;
16354;SDS011;8287;51.644;8.494;2023-04-06T05:21:13;8.38;;;5.45;;
16354;SDS011;8287;51.644;8.494;2023-04-06T05:23:41;8.43;;;4.90;;
16354;SDS011;8287;51.644;8.494;2023-04-06T05:26:08;7.97;;;5.22;;
16354;SDS011;8287;51.644;8.494;2023-04-06T05:28:35;7.82;;;5.10;;
16354;SDS011;8287;51.644;8.494;2023-04-06T05:31:02;7.20;;;5.20;;
16354;SDS011;8287;51.644;8.494;2023-04-06T05:33:28;7.95;;;4.93;;
16354;SDS011;8287;51.644;8.494;2023-04-06T05:35:55;10.85;;;6.00;;
16354;SDS011;8287;51.644;8.494;2023-04-06T05:38:22;10.57;;;4.90;;
16354;SDS011;8287;51.644;8.494;2023-04-06T05:40:50;7.88;;;5.40;;
16354;SDS011;8287;51.644;8.494;2023-04-06T05:43:17;7.50;;;5.53;;
16354;SDS011;8287;51.644;8.494;2023-04-06T05:45:44;7.45;;;5.10;;
16354;SDS011;8287;51.644;8.494;2023-04-06T05:48:10;8.15;;;5.05;;
16354;SDS011;8287;51.644;8.494;2023-04-06T05:50:37;11.68;;;5.13;;
16354;SDS011;8287;51.644;8.494;2023-04-06T05:53:04;6.13;;;4.43;;
16354;SDS011;8287;51.644;8.494;2023-04-06T05:55:30;7.32;;;4.50;;
16354;SDS011;8287;51.644;8.494;2023-04-06T05:57:58;9.27;;;4.90;;
16354;SDS011;8287;51.644;8.494;2023-04-06T06:00:25;5.85;;;4.65;;
16354;SDS011;8287;51.644;8.494;2023-04-06T06:02:51;12.63;;;5.78;;
16354;SDS011;8287;51.644;8.494;2023-04-06T06:05:18;6.57;;;4.65;;
16354;SDS011;8287;51.644;8.494;2023-04-06T06:07:45;11.93;;;5.18;;
16354;SDS011;8287;51.644;8.494;2023-04-06T06:10:12;9.45;;;4.63;;
16354;SDS011;8287;51.644;8.494;2023-04-06T06:12:38;8.70;;;4.63;;
16354;SDS011;8287;51.644;8.494;2023-04-06T06:15:07;7.78;;;4.20;;
16354;SDS011;8287;51.644;8.494;2023-04-06T06:17:34;6.90;;;4.43;;
16354;SDS011;8287;51.644;8.494;2023-04-06T06:20:01;6.80;;;4.65;;
16354;SDS011;8287;51.644;8.494;2023-04-06T06:22:28;6.70;;;4.53;;
16354;SDS011;8287;51.644;8.494;2023-04-06T06:24:54;7.22;;;4.00;;
16354;SDS011;8287;51.644;8.494;2023-04-06T06:27:21;7.00;;;4.45;;
16354;SDS011;8287;51.644;8.494;2023-04-06T06:29:48;8.48;;;5.00;;
16354;SDS011;8287;51.644;8.494;2023-04-06T06:32:16;5.93;;;3.78;;
16354;SDS011;8287;51.644;8.494;2023-04-06T06:34:42;8.05;;;4.65;;
16354;SDS011;8287;51.644;8.494;2023-04-06T06:37:09;6.18;;;4.28;;
16354;SDS011;8287;51.644;8.494;2023-04-06T06:39:36;7.13;;;4.03;;
16354;SDS011;8287;51.644;8.494;2023-04-06T06:42:03;12.77;;;5.03;;
16354;SDS011;8287;51.644;8.494;2023-04-06T06:44:29;7.72;;;4.90;;
16354;SDS011;8287;51.644;8.494;2023-04-06T06:46:56;7.97;;;4.38;;
16354;SDS011;8287;51.644;8.494;2023-04-06T06:49:24;5.25;;;3.92;;
16354;SDS011;8287;51.644;8.494;2023-04-06T06:51:51;7.88;;;4.80;;
16354;SDS011;8287;51.644;8.494;2023-04-06T06:54:17;5.38;;;4.60;;
16354;SDS011;8287;51.644;8.494;2023-04-06T06:56:44;6.03;;;4.82;;
16354;SDS011;8287;51.644;8.494;2023-04-06T06:59:11;10.02;;;5.72;;
16354;SDS011;8287;51.644;8.494;2023-04-06T07:01:38;7.68;;;4.28;;
16354;SDS011;8287;51.644;8.494;2023-04-06T07:04:05;9.73;;;5.28;;
16354;SDS011;8287;51.644;8.494;2023-04-06T07:06:34;7.35;;;4.97;;
16354;SDS011;8287;51.644;8.494;2023-04-06T07:09:01;8.35;;;5.32;;
16354;SDS011;8287;51.644;8.494;2023-04-06T07:11:28;6.45;;;5.00;;
16354;SDS011;8287;51.644;8.494;2023-04-06T07:13:56;6.95;;;4.82;;
16354;SDS011;8287;51.644;8.494;2023-04-06T07:16:22;7.03;;;4.78;;
16354;SDS011;8287;51.644;8.494;2023-04-06T07:18:49;8.55;;;4.70;;
16354;SDS011;8287;51.644;8.494;2023-04-06T07:21:16;7.22;;;4.70;;
16354;SDS011;8287;51.644;8.494;2023-04-06T07:23:44;7.90;;;5.45;;
16354;SDS011;8287;51.644;8.494;2023-04-06T07:26:13;6.03;;;4.47;;
16354;SDS011;8287;51.644;8.494;2023-04-06T07:28:39;7.18;;;5.63;;
16354;SDS011;8287;51.644;8.494;2023-04-06T07:31:06;8.18;;;4.53;;
16354;SDS011;8287;51.644;8.494;2023-04-06T07:33:33;6.28;;;4.57;;
16354;SDS011;8287;51.644;8.494;2023-04-06T07:35:59;6.65;;;4.35;;
16354;SDS011;8287;51.644;8.494;2023-04-06T07:38:26;8.32;;;4.72;;
16354;SDS011;8287;51.644;8.494;2023-04-06T07:40:54;7.70;;;5.05;;
16354;SDS011;8287;51.644;8.494;2023-04-06T07:43:21;10.73;;;5.28;;
16354;SDS011;8287;51.644;8.494;2023-04-06T07:45:47;6.78;;;5.20;;
16354;SDS011;8287;51.644;8.494;2023-04-06T07:48:14;6.40;;;5.30;;
16354;SDS011;8287;51.644;8.494;2023-04-06T07:50:41;9.27;;;5.13;;
16354;SDS011;8287;51.644;8.494;2023-04-06T07:53:08;6.55;;;4.97;;
16354;SDS011;8287;51.644;8.494;2023-04-06T07:55:34;7.88;;;5.55;;
16354;SDS011;8287;51.644;8.494;2023-04-06T07:58:02;9.05;;;5.75;;
16354;SDS011;8287;51.644;8.494;2023-04-06T08:00:29;6.95;;;4.70;;
16354;SDS011;8287;51.644;8.494;2023-04-06T08:02:56;7.88;;;5.72;;
16354;SDS011;8287;51.644;8.494;2023-04-06T08:05:23;7.57;;;4.93;;
16354;SDS011;8287;51.644;8.494;2023-04-06T08:07:49;7.00;;;5.35;;
16354;SDS011;8287;51.644;8.494;2023-04-06T08:10:16;9.23;;;5.50;;
16354;SDS011;8287;51.644;8.494;2023-04-06T08:12:43;7.95;;;5.13;;
16354;SDS011;8287;51.644;8.494;2023-04-06T08:15:11;7.75;;;5.50;;
16354;SDS011;8287;51.644;8.494;2023-04-06T08:17:38;7.28;;;5.05;;
16354;SDS011;8287;51.644;8.494;2023-04-06T08:20:05;8.25;;;5.75;;
16354;SDS011;8287;51.644;8.494;2023-04-06T08:22:32;11.05;;;5.88;;
16354;SDS011;8287;51.644;8.494;2023-04-06T08:24:59;7.28;;;5.45;;
16354;SDS011;8287;51.644;8.494;2023-04-06T08:27:25;7.18;;;5.63;;
16354;SDS011;8287;51.644;8.494;2023-04-06T08:29:52;7.70;;;5.55;;
16354;SDS011;8287;51.644;8.494;2023-04-06T08:32:20;7.72;;;5.50;;
16354;SDS011;8287;51.644;8.494;2023-04-06T08:34:47;10.35;;;5.75;;
16354;SDS011;8287;51.644;8.494;2023-04-06T08:37:13;7.38;;;5.57;;
16354;SDS011;8287;51.644;8.494;2023-04-06T08:39:40;12.95;;;5.72;;
16354;SDS011;8287;51.644;8.494;2023-04-06T08:42:10;9.45;;;5.72;;
16354;SDS011;8287;51.644;8.494;2023-04-06T08:44:45;6.07;;;5.38;;
16354;SDS011;8287;51.644;8.494;2023-04-06T08:47:12;8.23;;;5.85;;
16354;SDS011;8287;51.644;8.494;2023-04-06T08:49:40;8.73;;;6.18;;
16354;SDS011;8287;51.644;8.494;2023-04-06T08:52:10;7.75;;;5.85;;
16354;SDS011;8287;51.644;8.494;2023-04-06T08:54:37;8.80;;;6.38;;
16354;SDS011;8287;51.644;8.494;2023-04-06T08:57:04;10.20;;;6.78;;
16354;SDS011;8287;51.644;8.494;2023-04-06T08:59:31;14.07;;;6.30;;
16354;SDS011;8287;51.644;8.494;2023-04-06T09:01:58;8.80;;;6.47;;
16354;SDS011;8287;51.644;8.494;2023-04-06T09:04:29;10.05;;;5.93;;
16354;SDS011;8287;51.644;8.494;2023-04-06T09:06:57;11.13;;;6.05;;
16354;SDS011;8287;51.644;8.494;2023-04-06T09:09:24;10.55;;;6.43;;
16354;SDS011;8287;51.644;8.494;2023-04-06T09:11:51;8.80;;;5.63;;
16354;SDS011;8287;51.644;8.494;2023-04-06T09:14:32;10.98;;;6.32;;
16354;SDS011;8287;51.644;8.494;2023-04-06T09:17:00;10.45;;;6.78;;
16354;SDS011;8287;51.644;8.494;2023-04-06T09:19:27;10.50;;;6.47;;
16354;SDS011;8287;51.644;8.494;2023-04-06T09:22:02;8.43;;;6.15;;
16354;SDS011;8287;51.644;8.494;2023-04-06T09:24:39;8.73;;;6.40;;
16354;SDS011;8287;51.644;8.494;2023-04-06T09:27:06;10.45;;;7.13;;
16354;SDS011;8287;51.644;8.494;2023-04-06T09:29:33;11.70;;;7.35;;
16354;SDS011;8287;51.644;8.494;2023-04-06T09:32:02;9.35;;;6.68;;
16354;SDS011;8287;51.644;8.494;2023-04-06T09:34:30;9.93;;;7.18;;
16354;SDS011;8287;51.644;8.494;2023-04-06T09:36:57;9.43;;;6.57;;
16354;SDS011;8287;51.644;8.494;2023-04-06T09:39:25;10.93;;;6.57;;
16354;SDS011;8287;51.644;8.494;2023-04-06T09:41:52;11.82;;;7.10;;
16354;SDS011;8287;51.644;8.494;2023-04-06T09:44:20;10.70;;;7.10;;
16354;SDS011;8287;51.644;8.494;2023-04-06T09:46:49;10.85;;;7.30;;
16354;SDS011;8287;51.644;8.494;2023-04-06T09:49:15;13.85;;;7.80;;
16354;SDS011;8287;51.644;8.494;2023-04-06T09:51:45;8.82;;;6.97;;
16354;SDS011;8287;51.644;8.494;2023-04-06T09:54:15;9.68;;;6.85;;
16354;SDS011;8287;51.644;8.494;2023-04-06T09:56:46;9.82;;;7.30;;
16354;SDS011;8287;51.644;8.494;2023-04-06T09:59:18;8.18;;;6.82;;
16354;SDS011;8287;51.644;8.494;2023-04-06T10:01:51;9.68;;;7.20;;
16354;SDS011;8287;51.644;8.494;2023-04-06T10:04:21;12.27;;;7.60;;
16354;SDS011;8287;51.644;8.494;2023-04-06T10:06:59;9.68;;;6.80;;
16354;SDS011;8287;51.644;8.494;2023-04-06T10:09:28;11.30;;;7.82;;
16354;SDS011;8287;51.644;8.494;2023-04-06T10:12:02;11.27;;;7.35;;
16354;SDS011;8287;51.644;8.494;2023-04-06T10:14:30;14.30;;;8.50;;
16354;SDS011;8287;51.644;8.494;2023-04-06T10:16:58;10.65;;;7.70;;
16354;SDS011;8287;51.644;8.494;2023-04-06T10:19:28;11.07;;;8.10;;
16354;SDS011;8287;51.644;8.494;2023-04-06T10:22:00;12.15;;;7.70;;
16354;SDS011;8287;51.644;8.494;2023-04-06T10:24:31;11.20;;;7.28;;
16354;SDS011;8287;51.644;8.494;2023-04-06T10:26:58;12.77;;;7.85;;
16354;SDS011;8287;51.644;8.494;2023-04-06T10:29:26;15.35;;;8.63;;
16354;SDS011;8287;51.644;8.494;2023-04-06T10:31:53;11.30;;;7.70;;
16354;SDS011;8287;51.644;8.494;2023-04-06T10:34:21;11.00;;;6.93;;
16354;SDS011;8287;51.644;8.494;2023-04-06T10:36:47;10.63;;;7.78;;
16354;SDS011;8287;51.644;8.494;2023-04-06T10:39:14;11.27;;;8.02;;
16354;SDS011;8287;51.644;8.494;2023-04-06T10:41:52;10.27;;;6.43;;
16354;SDS011;8287;51.644;8.494;2023-04-06T10:44:20;10.30;;;6.88;;
16354;SDS011;8287;51.644;8.494;2023-04-06T10:46:53;11.93;;;7.57;;
16354;SDS011;8287;51.644;8.494;2023-04-06T10:49:21;10.50;;;7.90;;
16354;SDS011;8287;51.644;8.494;2023-04-06T10:51:51;9.48;;;6.60;;
16354;SDS011;8287;51.644;8.494;2023-04-06T10:54:20;11.77;;;7.50;;
16354;SDS011;8287;51.644;8.494;2023-04-06T10:56:47;9.68;;;6.82;;
16354;SDS011;8287;51.644;8.494;2023-04-06T10:59:18;10.63;;;6.90;;
16354;SDS011;8287;51.644;8.494;2023-04-06T11:01:45;11.82;;;6.90;;
16354;SDS011;8287;51.644;8.494;2023-04-06T11:04:16;8.15;;;6.30;;
16354;SDS011;8287;51.644;8.494;2023-04-06T11:06:46;11.18;;;8.02;;
16354;SDS011;8287;51.644;8.494;2023-04-06T11:09:22;14.75;;;7.25;;
16354;SDS011;8287;51.644;8.494;2023-04-06T11:11:51;8.73;;;6.45;;
16354;SDS011;8287;51.644;8.494;2023-04-06T11:14:19;12.43;;;7.25;;
16354;SDS011;8287;51.644;8.494;2023-04-06T11:16:46;10.40;;;6.95;;
16354;SDS011;8287;51.644;8.494;2023-04-06T11:19:14;11.35;;;7.47;;
16354;SDS011;8287;51.644;8.494;2023-04-06T11:21:42;9.15;;;6.75;;
16354;SDS011;8287;51.644;8.494;2023-04-06T11:24:12;10.80;;;7.75;;
16354;SDS011;8287;51.644;8.494;2023-04-06T11:26:41;11.98;;;8.32;;
16354;SDS011;8287;51.644;8.494;2023-04-06T11:29:10;9.27;;;7.30;;
16354;SDS011;8287;51.644;8.494;2023-04-06T11:31:41;11.25;;;7.38;;
16354;SDS011;8287;51.644;8.494;2023-04-06T11:34:12;10.35;;;7.57;;
16354;SDS011;8287;51.644;8.494;2023-04-06T11:36:40;11.65;;;7.60;;
16354;SDS011;8287;51.644;8.494;2023-04-06T11:39:09;11.38;;;8.13;;
16354;SDS011;8287;51.644;8.494;2023-04-06T11:41:36;10.20;;;6.85;;
16354;SDS011;8287;51.644;8.494;2023-04-06T11:44:03;10.13;;;7.35;;
16354;SDS011;8287;51.644;8.494;2023-04-06T11:46:31;11.77;;;7.00;;
16354;SDS011;8287;51.644;8.494;2023-04-06T11:48:58;9.75;;;7.00;;
16354;SDS011;8287;51.644;8.494;2023-04-06T11:51:25;13.00;;;8.45;;
16354;SDS011;8287;51.644;8.494;2023-04-06T11:53:54;18.88;;;7.40;;
16354;SDS011;8287;51.644;8.494;2023-04-06T11:56:25;9.30;;;6.18;;
16354;SDS011;8287;51.644;8.494;2023-04-06T11:58:54;8.52;;;6.57;;
16354;SDS011;8287;51.644;8.494;2023-04-06T12:01:21;7.55;;;6.30;;
16354;SDS011;8287;51.644;8.494;2023-04-06T12:03:48;8.30;;;5.97;;
16354;SDS011;8287;51.644;8.494;2023-04-06T12:06:16;9.77;;;7.30;;
16354;SDS011;8287;51.644;8.494;2023-04-06T12:08:43;8.73;;;6.95;;
16354;SDS011;8287;51.644;8.494;2023-04-06T12:11:11;10.43;;;7.57;;
16354;SDS011;8287;51.644;8.494;2023-04-06T12:13:38;10.40;;;6.82;;
16354;SDS011;8287;51.644;8.494;2023-04-06T12:16:05;15.32;;;8.65;;
16354;SDS011;8287;51.644;8.494;2023-04-06T12:18:32;13.82;;;9.52;;
16354;SDS011;8287;51.644;8.494;2023-04-06T12:20:59;10.68;;;8.38;;
16354;SDS011;8287;51.644;8.494;2023-04-06T12:23:25;13.32;;;9.63;;
16354;SDS011;8287;51.644;8.494;2023-04-06T12:25:52;12.57;;;9.38;;
16354;SDS011;8287;51.644;8.494;2023-04-06T12:28:21;11.80;;;8.55;;
16354;SDS011;8287;51.644;8.494;2023-04-06T12:30:51;12.43;;;8.45;;
16354;SDS011;8287;51.644;8.494;2023-04-06T12:33:18;10.60;;;8.52;;
16354;SDS011;8287;51.644;8.494;2023-04-06T12:35:45;12.85;;;8.45;;
16354;SDS011;8287;51.644;8.494;2023-04-06T12:38:12;15.18;;;9.40;;
16354;SDS011;8287;51.644;8.494;2023-04-06T12:40:39;13.80;;;9.07;;
16354;SDS011;8287;51.644;8.494;2023-04-06T12:43:06;14.30;;;10.18;;
16354;SDS011;8287;51.644;8.494;2023-04-06T12:45:35;10.88;;;8.52;;
16354;SDS011;8287;51.644;8.494;2023-04-06T12:48:01;13.02;;;9.10;;
16354;SDS011;8287;51.644;8.494;2023-04-06T12:50:28;11.55;;;8.65;;
16354;SDS011;8287;51.644;8.494;2023-04-06T12:52:55;13.05;;;9.07;;
16354;SDS011;8287;51.644;8.494;2023-04-06T12:55:21;14.90;;;9.13;;
16354;SDS011;8287;51.644;8.494;2023-04-06T12:57:48;11.18;;;7.70;;
16354;SDS011;8287;51.644;8.494;2023-04-06T13:00:15;13.07;;;9.73;;
16354;SDS011;8287;51.644;8.494;2023-04-06T13:02:44;11.98;;;8.50;;
16354;SDS011;8287;51.644;8.494;2023-04-06T13:05:12;11.55;;;9.07;;
16354;SDS011;8287;51.644;8.494;2023-04-06T13:07:43;11.40;;;8.85;;
16354;SDS011;8287;51.644;8.494;2023-04-06T13:10:10;10.75;;;9.00;;
16354;SDS011;8287;51.644;8.494;2023-04-06T13:12:37;11.75;;;8.85;;
16354;SDS011;8287;51.644;8.494;2023-04-06T13:15:04;12.15;;;8.77;;
16354;SDS011;8287;51.644;8.494;2023-04-06T13:17:31;14.48;;;10.68;;
16354;SDS011;8287;51.644;8.494;2023-04-06T13:20:00;15.52;;;11.05;;
16354;SDS011;8287;51.644;8.494;2023-04-06T13:22:26;12.98;;;9.25;;
16354;SDS011;8287;51.644;8.494;2023-04-06T13:24:53;11.82;;;8.60;;
16354;SDS011;8287;51.644;8.494;2023-04-06T13:27:20;9.30;;;6.75;;
16354;SDS011;8287;51.644;8.494;2023-04-06T13:29:47;8.18;;;6.32;;
16354;SDS011;8287;51.644;8.494;2023-04-06T13:32:14;9.23;;;7.18;;
16354;SDS011;8287;51.644;8.494;2023-04-06T13:34:40;7.20;;;5.95;;
16354;SDS011;8287;51.644;8.494;2023-04-06T13:37:11;8.65;;;6.25;;
16354;SDS011;8287;51.644;8.494;2023-04-06T13:39:38;8.85;;;6.55;;
16354;SDS011;8287;51.644;8.494;2023-04-06T13:42:05;7.28;;;5.85;;
16354;SDS011;8287;51.644;8.494;2023-04-06T13:44:31;8.68;;;6.50;;
16354;SDS011;8287;51.644;8.494;2023-04-06T13:46:58;8.77;;;6.15;;
16354;SDS011;8287;51.644;8.494;2023-04-06T13:49:25;6.50;;;5.65;;
16354;SDS011;8287;51.644;8.494;2023-04-06T13:51:51;8.32;;;6.65;;
16354;SDS011;8287;51.644;8.494;2023-04-06T13:54:20;11.52;;;5.10;;
16354;SDS011;8287;51.644;8.494;2023-04-06T13:56:46;8.93;;;5.78;;
16354;SDS011;8287;51.644;8.494;2023-04-06T13:59:13;7.78;;;5.45;;
16354;SDS011;8287;51.644;8.494;2023-04-06T14:01:40;7.18;;;5.10;;
16354;SDS011;8287;51.644;8.494;2023-04-06T14:04:06;9.55;;;5.88;;
16354;SDS011;8287;51.644;8.494;2023-04-06T14:06:33;6.93;;;5.75;;
16354;SDS011;8287;51.644;8.494;2023-04-06T14:09:00;7.88;;;5.57;;
16354;SDS011;8287;51.644;8.494;2023-04-06T14:11:28;5.60;;;4.65;;
16354;SDS011;8287;51.644;8.494;2023-04-06T14:13:54;6.25;;;4.43;;
16354;SDS011;8287;51.644;8.494;2023-04-06T14:16:23;6.22;;;4.25;;
16354;SDS011;8287;51.644;8.494;2023-04-06T14:18:50;5.40;;;4.10;;
16354;SDS011;8287;51.644;8.494;2023-04-06T14:21:17;7.82;;;5.18;;
16354;SDS011;8287;51.644;8.494;2023-04-06T14:23:44;7.25;;;5.65;;
16354;SDS011;8287;51.644;8.494;2023-04-06T14:26:11;8.75;;;6.05;;
16354;SDS011;8287;51.644;8.494;2023-04-06T14:28:40;7.43;;;5.15;;
16354;SDS011;8287;51.644;8.494;2023-04-06T14:31:09;6.93;;;5.68;;
16354;SDS011;8287;51.644;8.494;2023-04-06T14:33:38;7.38;;;5.13;;
16354;SDS011;8287;51.644;8.494;2023-04-06T14:36:05;6.45;;;5.03;;
16354;SDS011;8287;51.644;8.494;2023-04-06T14:38:32;6.43;;;4.60;;
16354;SDS011;8287;51.644;8.494;2023-04-06T14:40:59;6.00;;;4.82;;
16354;SDS011;8287;51.644;8.494;2023-04-06T14:43:26;6.93;;;5.78;;
16354;SDS011;8287;51.644;8.494;2023-04-06T14:45:54;7.78;;;5.82;;
16354;SDS011;8287;51.644;8.494;2023-04-06T14:48:21;7.20;;;4.95;;
16354;SDS011;8287;51.644;8.494;2023-04-06T14:50:54;9.50;;;6.43;;
16354;SDS011;8287;51.644;8.494;2023-04-06T14:53:22;10.07;;;7.00;;
16354;SDS011;8287;51.644;8.494;2023-04-06T14:55:48;7.72;;;5.78;;
16354;SDS011;8287;51.644;8.494;2023-04-06T14:58:16;10.00;;;6.88;;